Time;durP1;ratioP1;P1;durP2;ratioP2;P2;SDS_P1;SDS_P2;PMS_P1;PMS_P2;Temp;Humidity;BMP_temperature;BMP_pressure;BME280_temperature;BME280_humidity;BME280_pressure;Samples;Min_cycle;Max_cycle;Signal;HPM_P1;HPM_P2
2023/01/11 00:00:27;;;;;;;4.60;1.85;;;;;;;6.87;94.61;98334.19;5037871;23;20199;-90
2023/01/11 00:02:31;;;;;;;2.67;1.55;;;;;;;6.89;93.94;98328.03;4991768;23;20690;-88
2023/01/11 00:04:35;;;;;;;2.67;1.75;;;;;;;6.90;93.78;98321.94;5029890;23;20679;-89
2023/01/11 00:06:38;;;;;;;4.28;1.73;;;;;;;6.93;94.54;98320.94;5039702;23;20214;-90
2023/01/11 00:08:41;;;;;;;5.88;1.90;;;;;;;6.88;93.91;98313.38;5015514;23;20181;-89
2023/01/11 00:10:44;;;;;;;6.05;1.63;;;;;;;6.90;94.20;98311.59;5014226;23;20236;-89
2023/01/11 00:12:48;;;;;;;4.97;1.50;;;;;;;6.90;94.25;98310.72;5015469;23;20642;-89
2023/01/11 00:14:51;;;;;;;3.08;1.60;;;;;;;6.90;94.81;98302.94;5015328;23;20175;-89
2023/01/11 00:16:54;;;;;;;2.78;1.40;;;;;;;6.92;94.11;98298.53;5015204;23;20216;-90
2023/01/11 00:18:57;;;;;;;9.10;4.50;;;;;;;6.90;95.11;98302.94;5014747;23;20185;-90
2023/01/11 00:21:04;;;;;;;2.35;1.42;;;;;;;6.93;94.88;98297.59;4990572;23;20204;-89
2023/01/11 00:23:08;;;;;;;10.00;3.10;;;;;;;6.97;94.17;98296.56;5037931;23;20186;-89
2023/01/11 00:25:11;;;;;;;4.50;2.85;;;;;;;6.98;93.32;98295.66;5015429;23;20588;-90
2023/01/11 00:27:14;;;;;;;2.88;1.42;;;;;;;7.00;93.60;98299.00;5014646;23;20190;-89
2023/01/11 00:29:17;;;;;;;5.55;1.80;;;;;;;7.02;92.78;98299.75;5014491;23;20178;-89
2023/01/11 00:31:20;;;;;;;3.05;1.40;;;;;;;7.03;93.50;98306.59;5015347;23;20191;-89
2023/01/11 00:33:23;;;;;;;5.82;2.30;;;;;;;7.05;93.96;98305.59;5014366;23;20207;-89
2023/01/11 00:35:27;;;;;;;3.80;2.08;;;;;;;7.10;92.64;98298.44;5014610;23;20184;-90
2023/01/11 00:37:32;;;;;;;4.38;2.28;;;;;;;7.10;93.51;98301.03;5014664;23;20532;-89
2023/01/11 00:39:35;;;;;;;2.75;1.38;;;;;;;7.11;93.66;98300.97;4990971;23;20200;-90
2023/01/11 00:48:40;;;;;;;1.90;1.30;;;;;;;7.13;92.40;98268.00;5038320;23;20188;-90
2023/01/11 00:50:46;;;;;;;5.18;1.60;;;;;;;7.16;91.95;98272.19;5014349;23;20215;-89
2023/01/11 00:52:51;;;;;;;3.85;1.67;;;;;;;7.16;91.52;98257.47;5013724;23;20178;-90
2023/01/11 00:54:54;;;;;;;5.38;1.70;;;;;;;7.19;92.51;98257.31;5015946;23;20178;-90
2023/01/11 00:56:57;;;;;;;3.25;1.33;;;;;;;7.21;91.01;98258.06;5014705;23;20273;-89
2023/01/11 00:59:00;;;;;;;2.92;1.40;;;;;;;7.22;92.36;98262.34;5014109;23;20229;-89
2023/01/11 01:01:06;;;;;;;5.25;2.50;;;;;;;7.22;91.28;98264.94;5013621;23;20514;-90
2023/01/11 01:03:10;;;;;;;4.93;2.42;;;;;;;7.22;91.12;98259.75;5014230;23;20238;-90
2023/01/11 01:05:13;;;;;;;3.05;1.30;;;;;;;7.25;92.10;98262.16;4990413;23;20738;-90
2023/01/11 01:07:16;;;;;;;6.70;2.13;;;;;;;7.28;90.75;98256.81;5014849;23;20185;-90
2023/01/11 01:09:21;;;;;;;3.55;1.30;;;;;;;7.34;92.01;98259.09;4989041;23;20274;-89
2023/01/11 01:11:24;;;;;;;4.35;1.85;;;;;;;7.32;90.40;98253.16;5014180;23;20525;-89
2023/01/11 01:15:47;;;;;;;2.63;1.40;;;;;;;7.30;91.39;98252.38;5013851;23;20181;-89
2023/01/11 01:17:52;;;;;;;2.67;1.60;;;;;;;7.32;90.37;98247.13;4990492;23;20182;-89
2023/01/11 01:19:55;;;;;;;3.38;1.70;;;;;;;7.37;91.94;98251.16;4990128;23;20218;-89
2023/01/11 01:21:59;;;;;;;3.08;1.20;;;;;;;7.39;90.18;98248.47;5012996;23;20959;-89
2023/01/11 01:24:02;;;;;;;2.50;1.30;;;;;;;7.43;90.37;98245.63;5015899;23;20187;-90
2023/01/11 01:26:07;;;;;;;3.90;1.45;;;;;;;7.45;91.69;98238.59;5013417;23;20274;-90
2023/01/11 01:28:10;;;;;;;2.17;1.23;;;;;;;7.49;91.72;98234.94;5015380;23;20182;-90
2023/01/11 01:30:14;;;;;;;2.95;1.45;;;;;;;7.50;89.94;98237.44;5013998;23;20188;-90
2023/01/11 01:32:17;;;;;;;1.85;1.23;;;;;;;7.53;89.96;98236.41;5014020;23;20179;-88
2023/01/11 01:34:20;;;;;;;2.75;1.60;;;;;;;7.55;91.23;98230.25;5014077;23;20192;-90
2023/01/11 01:36:23;;;;;;;2.42;1.52;;;;;;;7.55;91.00;98229.41;5015148;23;20268;-89
2023/01/11 01:38:26;;;;;;;2.88;1.50;;;;;;;7.55;91.34;98237.19;5037980;23;20268;-90
2023/01/11 01:40:29;;;;;;;5.03;1.35;;;;;;;7.56;90.00;98242.31;5014421;23;20233;-90
2023/01/11 01:42:33;;;;;;;7.13;1.73;;;;;;;7.60;90.11;98242.97;5012160;23;20197;-89
2023/01/11 01:45:00;;;;;;;1.92;1.27;;;;;;;7.61;90.65;98229.09;5037907;23;20221;-90
2023/01/11 01:47:03;;;;;;;2.15;1.30;;;;;;;7.64;90.60;98231.50;5036888;23;20529;-89
2023/01/11 01:49:09;;;;;;;3.45;1.33;;;;;;;7.67;90.06;98237.38;4990564;23;20595;-89
2023/01/11 01:51:14;;;;;;;2.28;1.30;;;;;;;7.69;90.76;98230.31;5014099;23;20276;-90
2023/01/11 01:53:21;;;;;;;2.65;1.15;;;;;;;7.72;90.38;98221.53;5013869;23;20186;-90
2023/01/11 01:55:28;;;;;;;1.63;1.30;;;;;;;7.73;89.69;98229.25;4990993;23;20188;-89
2023/01/11 01:57:34;;;;;;;4.72;1.67;;;;;;;7.76;90.49;98217.88;4989997;23;20233;-89
2023/01/11 01:59:37;;;;;;;2.60;1.38;;;;;;;7.78;90.97;98214.25;4990817;23;20217;-89
2023/01/11 02:01:47;;;;;;;3.65;1.42;;;;;;;7.78;90.46;98206.47;5014193;23;20180;-88
2023/01/11 02:03:51;;;;;;;1.88;1.58;;;;;;;7.80;90.55;98208.97;5039456;23;20731;-88
2023/01/11 02:05:54;;;;;;;3.50;1.52;;;;;;;7.83;90.82;98208.78;5015812;23;20594;-89
2023/01/11 02:07:58;;;;;;;2.55;1.30;;;;;;;7.85;91.16;98201.75;5017599;23;20519;-89
2023/01/11 02:10:06;;;;;;;4.95;1.20;;;;;;;7.89;90.71;98201.50;5015850;23;20178;-90
2023/01/11 02:12:09;;;;;;;2.38;1.10;;;;;;;7.91;90.12;98197.06;5015619;23;20181;-89
2023/01/11 02:14:16;;;;;;;3.10;1.40;;;;;;;7.93;90.78;98194.41;5016963;23;20189;-90
2023/01/11 02:16:19;;;;;;;2.53;1.10;;;;;;;7.95;89.67;98197.72;5014413;23;20189;-89
2023/01/11 02:18:22;;;;;;;2.30;1.20;;;;;;;7.98;89.49;98181.06;5016107;23;20173;-90
2023/01/11 02:20:46;;;;;;;1.80;1.25;;;;;;;7.97;89.78;98183.75;5015883;23;20539;-89
2023/01/11 02:23:07;;;;;;;4.07;1.40;;;;;;;8.01;90.29;98177.44;5017024;23;20620;-89
2023/01/11 02:25:33;;;;;;;2.60;1.40;;;;;;;8.00;91.21;98179.22;5039849;23;20728;-89
2023/01/11 02:28:02;;;;;;;2.80;1.35;;;;;;;8.02;89.80;98182.53;5015338;23;20269;-90
2023/01/11 02:30:16;;;;;;;2.60;1.48;;;;;;;8.01;91.25;98170.50;5015069;23;20180;-89
2023/01/11 02:32:26;;;;;;;2.85;1.23;;;;;;;7.99;90.18;98172.34;5015537;23;20225;-90
2023/01/11 02:34:37;;;;;;;3.35;1.35;;;;;;;7.97;90.70;98166.41;4992341;23;20181;-89
2023/01/11 02:36:50;;;;;;;2.10;1.20;;;;;;;7.98;90.50;98162.88;5014609;23;20839;-90
2023/01/11 02:38:57;;;;;;;1.90;0.90;;;;;;;8.01;91.77;98162.72;5016772;23;20177;-89
2023/01/11 02:41:05;;;;;;;3.50;1.25;;;;;;;8.04;90.54;98159.94;5039342;23;20599;-90
2023/01/11 02:45:40;;;;;;;1.40;0.77;;;;;;;8.01;91.33;98160.13;5014693;23;20168;-89
2023/01/11 02:47:47;;;;;;;4.68;1.42;;;;;;;8.04;92.00;98162.53;5016371;23;20647;-89
2023/01/11 02:49:56;;;;;;;3.40;1.73;;;;;;;8.07;91.98;98157.16;4992219;23;20178;-88
2023/01/11 02:52:08;;;;;;;2.75;1.55;;;;;;;8.09;91.81;98164.88;5016274;23;20177;-90
2023/01/11 02:54:12;;;;;;;2.05;1.30;;;;;;;8.11;91.26;98157.81;5015683;23;20210;-88
2023/01/11 02:56:18;;;;;;;1.95;1.45;;;;;;;8.13;92.22;98150.81;5012631;23;20185;-89
2023/01/11 02:58:25;;;;;;;2.28;1.35;;;;;;;8.07;91.53;98149.38;5015374;23;20200;-89
2023/01/11 03:00:28;;;;;;;4.30;1.60;;;;;;;8.09;91.17;98162.28;4990835;23;20600;-89
2023/01/11 03:02:31;;;;;;;10.90;2.65;;;;;;;8.12;91.88;98144.78;5014643;23;20292;-89
2023/01/11 03:04:36;;;;;;;9.05;3.00;;;;;;;8.16;92.33;98153.22;4992292;23;20210;-89
2023/01/11 03:06:39;;;;;;;7.35;2.65;;;;;;;8.22;92.29;98160.66;5016151;23;20214;-89
2023/01/11 03:09:07;;;;;;;3.25;1.60;;;;;;;8.24;92.74;98159.66;5016230;23;20268;-89
2023/01/11 03:11:13;;;;;;;4.28;2.10;;;;;;;8.23;92.02;98155.38;5025201;23;20837;-89
2023/01/11 03:13:24;;;;;;;3.78;1.73;;;;;;;8.24;93.04;98153.59;5016670;23;20188;-89
2023/01/11 03:15:54;;;;;;;2.92;1.80;;;;;;;8.25;91.81;98145.72;5017200;23;20560;-89
2023/01/11 03:18:05;;;;;;;3.15;1.25;;;;;;;8.27;92.72;98146.50;5015961;23;20661;-89
2023/01/11 03:20:12;;;;;;;6.50;1.52;;;;;;;8.27;93.55;98146.50;5015159;23;20192;-89
2023/01/11 03:22:24;;;;;;;2.85;1.65;;;;;;;8.27;93.36;98150.84;5038664;23;20173;-89
2023/01/11 03:24:31;;;;;;;2.97;1.50;;;;;;;8.30;94.45;98154.09;5014591;23;20210;-89
2023/01/11 03:26:41;;;;;;;4.00;2.05;;;;;;;8.34;94.51;98147.78;5014377;23;20267;-89
2023/01/11 03:28:51;;;;;;;4.10;1.77;;;;;;;8.37;94.80;98150.22;5016400;23;20270;-89
2023/01/11 03:30:59;;;;;;;2.92;1.30;;;;;;;8.42;94.88;98143.00;5013929;23;20232;-88
2023/01/11 03:33:06;;;;;;;1.83;1.05;;;;;;;8.46;94.36;98139.28;4991307;23;20307;-88
2023/01/11 03:35:18;;;;;;;1.73;0.98;;;;;;;8.50;94.56;98148.56;5014226;23;20177;-88
2023/01/11 03:37:24;;;;;;;0.90;0.70;;;;;;;8.53;94.43;98146.63;4991286;23;20185;-89
2023/01/11 03:39:30;;;;;;;1.45;0.90;;;;;;;8.54;94.45;98142.28;5016625;23;20566;-88
2023/01/11 03:41:36;;;;;;;1.60;0.90;;;;;;;8.60;94.74;98147.94;5013898;23;20186;-89
2023/01/11 03:43:42;;;;;;;2.20;1.02;;;;;;;8.65;93.51;98140.69;5015106;23;20201;-89
2023/01/11 03:45:51;;;;;;;3.35;0.80;;;;;;;8.68;94.16;98150.06;5038951;23;20196;-90
2023/01/11 03:47:55;;;;;;;1.30;0.60;;;;;;;8.71;93.22;98147.28;4990685;23;20181;-89
2023/01/11 03:50:01;;;;;;;0.98;0.57;;;;;;;8.77;94.12;98152.97;5017003;23;20185;-89
2023/01/11 03:52:05;;;;;;;1.40;0.60;;;;;;;8.79;93.09;98143.28;5014452;23;20281;-89
2023/01/11 03:54:11;;;;;;;1.20;0.70;;;;;;;8.78;93.24;98152.03;5015914;23;20181;-88
2023/01/11 03:56:16;;;;;;;1.00;0.75;;;;;;;8.79;93.03;98145.88;5038841;23;20618;-89
2023/01/11 03:58:19;;;;;;;2.13;0.80;;;;;;;8.83;93.66;98141.38;4990959;23;20205;-90
2023/01/11 04:00:23;;;;;;;1.15;0.50;;;;;;;8.87;92.70;98145.44;5015831;23;20670;-89
2023/01/11 04:02:29;;;;;;;1.88;0.80;;;;;;;8.92;92.22;98132.06;5017007;23;20224;-90
2023/01/11 04:04:32;;;;;;;1.88;0.82;;;;;;;8.96;92.68;98136.16;5015127;23;20552;-88
2023/01/11 04:06:37;;;;;;;1.50;0.70;;;;;;;9.01;92.48;98128.88;5016925;23;20204;-89
2023/01/11 04:08:40;;;;;;;1.08;0.63;;;;;;;9.04;92.40;98136.50;5014754;23;20180;-88
2023/01/11 04:10:46;;;;;;;4.10;1.02;;;;;;;9.06;92.40;98129.44;5017726;23;20180;-89
2023/01/11 04:12:49;;;;;;;1.30;0.70;;;;;;;9.08;92.74;98126.75;5016349;23;20225;-89
2023/01/11 04:14:52;;;;;;;1.85;0.60;;;;;;;9.12;92.75;98120.44;5016652;23;20681;-88
2023/01/11 04:16:56;;;;;;;1.30;0.65;;;;;;;9.16;93.03;98119.31;5015414;23;20232;-89
2023/01/11 04:19:01;;;;;;;1.38;0.75;;;;;;;9.18;92.36;98113.06;5014908;23;20192;-89
2023/01/11 04:21:05;;;;;;;1.88;0.70;;;;;;;9.18;91.92;98107.84;5015829;23;20863;-89
2023/01/11 04:23:09;;;;;;;1.38;0.63;;;;;;;9.19;92.64;98109.53;5038668;23;20212;-88
2023/01/11 04:25:12;;;;;;;3.17;0.70;;;;;;;9.24;92.28;98106.66;5013875;23;20185;-88
2023/01/11 04:27:15;;;;;;;2.65;0.50;;;;;;;9.27;92.18;98096.88;5016239;23;20225;-88
2023/01/11 04:29:18;;;;;;;1.70;0.80;;;;;;;9.30;91.92;98104.50;5015242;23;20570;-88
2023/01/11 04:31:21;;;;;;;1.15;0.70;;;;;;;9.34;92.39;98090.38;5012830;23;20470;-88
2023/01/11 04:33:24;;;;;;;1.13;0.70;;;;;;;9.38;91.84;98093.59;5016297;23;20201;-88
2023/01/11 04:35:29;;;;;;;0.98;0.60;;;;;;;9.41;91.46;98092.47;5014170;23;20633;-87
2023/01/11 04:37:32;;;;;;;1.58;0.77;;;;;;;9.45;91.58;98086.13;5013310;23;20610;-88
2023/01/11 04:39:35;;;;;;;2.00;0.82;;;;;;;9.49;91.48;98086.78;4991507;23;20647;-87
2023/01/11 04:43:58;;;;;;;1.30;0.60;;;;;;;9.55;90.54;98089.81;4991019;23;20202;-88
2023/01/11 04:46:01;;;;;;;1.00;0.60;;;;;;;9.60;90.70;98092.13;5016062;23;20181;-88
2023/01/11 04:48:05;;;;;;;2.83;0.90;;;;;;;9.63;90.76;98090.16;5013769;23;20495;-89
2023/01/11 04:50:10;;;;;;;1.07;0.70;;;;;;;9.65;90.84;98087.47;4990997;23;20182;-88
2023/01/11 04:52:16;;;;;;;4.20;0.80;;;;;;;9.66;90.71;98081.31;5037974;23;20640;-89
2023/01/11 04:54:20;;;;;;;0.97;0.60;;;;;;;9.69;90.86;98084.56;5014249;23;20586;-88
2023/01/11 04:56:23;;;;;;;0.93;0.52;;;;;;;9.71;90.32;98085.31;5016232;23;20578;-89
2023/01/11 04:58:26;;;;;;;1.00;0.50;;;;;;;9.66;90.81;98081.31;4989671;23;20245;-89
2023/01/11 05:00:29;;;;;;;1.67;0.60;;;;;;;9.62;91.09;98078.09;5013857;23;20593;-88
2023/01/11 05:02:32;;;;;;;2.03;0.70;;;;;;;9.60;91.52;98076.50;5013504;23;20260;-88
2023/01/11 05:04:35;;;;;;;1.40;0.73;;;;;;;9.59;91.40;98074.84;5014971;23;20630;-87
2023/01/11 05:06:38;;;;;;;1.10;0.60;;;;;;;9.58;91.67;98062.78;5038409;23;20169;-88
2023/01/11 05:08:46;;;;;;;1.73;0.50;;;;;;;9.51;92.36;98064.09;5015881;23;20212;-88
2023/01/11 05:10:52;;;;;;;2.67;0.90;;;;;;;9.48;92.05;98075.53;5016229;23;20523;-88
2023/01/11 05:12:55;;;;;;;1.00;0.50;;;;;;;9.46;93.24;98063.56;5015355;23;20582;-88
2023/01/11 05:14:58;;;;;;;0.80;0.60;;;;;;;9.43;92.70;98055.94;4992007;23;20267;-88
2023/01/11 05:17:01;;;;;;;1.00;0.60;;;;;;;9.43;92.86;98071.56;5015005;23;20177;-88
2023/01/11 05:19:05;;;;;;;1.10;0.60;;;;;;;9.42;93.69;98064.69;5016280;23;20177;-88
2023/01/11 05:21:08;;;;;;;1.77;0.57;;;;;;;9.42;93.53;98064.69;5014510;23;20263;-89
2023/01/11 05:23:11;;;;;;;1.50;0.65;;;;;;;9.42;93.64;98062.06;5016096;23;20541;-88
2023/01/11 05:25:16;;;;;;;1.17;0.80;;;;;;;9.42;93.33;98057.69;5013369;23;20249;-88
2023/01/11 05:27:19;;;;;;;1.23;0.55;;;;;;;9.40;93.47;98062.19;5015057;23;20178;-88
2023/01/11 05:29:22;;;;;;;0.90;0.60;;;;;;;9.41;93.69;98058.66;5015318;23;20248;-88
2023/01/11 05:31:25;;;;;;;1.30;0.60;;;;;;;9.43;93.47;98063.75;5015785;23;20174;-88
2023/01/11 05:33:29;;;;;;;1.40;0.60;;;;;;;9.44;93.35;98050.66;5015917;23;20181;-87
2023/01/11 05:35:32;;;;;;;0.80;0.47;;;;;;;9.46;93.80;98051.38;5035002;23;20584;-88
2023/01/11 05:37:35;;;;;;;0.90;0.50;;;;;;;9.47;93.22;98060.84;5014046;23;20216;-88
2023/01/11 05:39:38;;;;;;;1.45;0.50;;;;;;;9.48;94.01;98061.69;5017556;23;20589;-90
2023/01/11 05:41:42;;;;;;;0.90;0.60;;;;;;;9.47;94.56;98050.44;5017281;23;20188;-89
2023/01/11 05:46:07;;;;;;;1.23;0.60;;;;;;;9.48;94.77;98056.47;4990590;23;20174;-88
2023/01/11 05:48:10;;;;;;;1.45;0.70;;;;;;;9.47;95.44;98060.00;5038731;23;20189;-88
2023/01/11 05:50:13;;;;;;;1.20;0.50;;;;;;;9.46;94.95;98055.75;5015066;23;20180;-88
2023/01/11 05:52:16;;;;;;;1.45;0.60;;;;;;;9.48;95.58;98059.91;5014867;23;20702;-88
2023/01/11 05:54:20;;;;;;;0.85;0.50;;;;;;;9.49;95.12;98058.97;5037393;23;20657;-88
2023/01/11 05:56:23;;;;;;;1.00;0.60;;;;;;;9.51;95.58;98061.50;5014664;23;20173;-88
2023/01/11 05:58:27;;;;;;;2.40;0.77;;;;;;;9.52;95.38;98052.75;5014259;23;21122;-88
2023/01/11 06:00:30;;;;;;;1.08;0.57;;;;;;;9.51;95.63;98048.47;5013270;23;20593;-87
2023/01/11 06:02:34;;;;;;;0.80;0.47;;;;;;;9.52;95.42;98048.38;5013781;23;20205;-87
2023/01/11 06:04:37;;;;;;;2.28;0.70;;;;;;;9.52;95.62;98052.75;5013325;23;20300;-87
2023/01/11 06:06:40;;;;;;;0.90;0.50;;;;;;;9.53;95.73;98050.06;5012668;23;20955;-87
2023/01/11 06:08:43;;;;;;;1.25;0.50;;;;;;;9.53;95.42;98052.66;5014993;23;20185;-87
2023/01/11 06:10:50;;;;;;;0.93;0.55;;;;;;;9.56;95.38;98049.00;5013764;23;20281;-87
2023/01/11 06:13:25;;;;;;;1.02;0.50;;;;;;;9.54;95.75;98045.66;5015809;23;20187;-88
2023/01/11 06:15:19;;;;;;;3.22;0.68;;;;;;;9.56;95.90;98036.84;5010882;23;20273;-88
2023/01/11 06:17:22;;;;;;;0.73;0.40;;;;;;;9.57;95.21;98040.25;5016650;23;20205;-88
2023/01/11 06:19:25;;;;;;;1.00;0.70;;;;;;;9.60;95.52;98038.28;5014950;23;21142;-87
2023/01/11 06:21:28;;;;;;;1.00;0.50;;;;;;;9.59;95.03;98026.22;5015398;23;20173;-87
2023/01/11 06:23:33;;;;;;;0.93;0.50;;;;;;;9.59;95.24;98038.38;5014692;23;20186;-87
2023/01/11 06:25:37;;;;;;;0.80;0.50;;;;;;;9.56;95.24;98023.81;5013299;23;20907;-87
2023/01/11 06:27:40;;;;;;;1.40;0.40;;;;;;;9.58;95.07;98031.53;5015404;23;20682;-87
2023/01/11 06:29:43;;;;;;;1.00;0.47;;;;;;;9.59;94.65;98026.22;5015001;23;20642;-88
2023/01/11 06:31:48;;;;;;;1.17;0.40;;;;;;;9.59;95.00;98028.81;5015538;23;20260;-88
2023/01/11 06:33:51;;;;;;;0.90;0.40;;;;;;;9.59;95.16;98027.97;5017004;23;20589;-87
2023/01/11 06:35:54;;;;;;;0.80;0.50;;;;;;;9.61;95.23;98018.31;5013682;23;20229;-87
2023/01/11 06:37:57;;;;;;;1.10;0.60;;;;;;;9.63;94.55;98017.25;5014315;23;20564;-87
2023/01/11 06:40:00;;;;;;;0.90;0.52;;;;;;;9.63;94.71;98012.06;5012907;23;20600;-87
2023/01/11 06:42:04;;;;;;;1.02;0.60;;;;;;;9.67;94.90;98007.50;5038499;23;20535;-88
2023/01/11 06:44:07;;;;;;;1.10;0.50;;;;;;;9.67;94.25;98010.94;5014574;23;20178;-87
2023/01/11 06:46:11;;;;;;;0.97;0.47;;;;;;;9.68;94.11;98017.81;5013143;23;20208;-87
2023/01/11 06:48:16;;;;;;;1.00;0.50;;;;;;;9.66;93.91;98009.25;4992315;23;20654;-88
2023/01/11 06:50:19;;;;;;;1.50;0.50;;;;;;;9.67;94.44;98012.72;5016985;23;20185;-87
2023/01/11 06:52:22;;;;;;;1.00;0.50;;;;;;;9.66;94.46;98018.84;5015972;23;20228;-87
2023/01/11 06:54:25;;;;;;;1.50;0.50;;;;;;;9.68;94.72;98022.16;5015157;23;20209;-87
2023/01/11 06:56:28;;;;;;;1.47;0.60;;;;;;;9.69;94.14;98019.47;4991071;23;20575;-87
2023/01/11 06:58:31;;;;;;;0.90;0.50;;;;;;;9.72;94.34;98013.22;5039052;23;21203;-87
2023/01/11 07:00:34;;;;;;;1.40;0.80;;;;;;;9.73;94.20;98018.34;5039064;23;20180;-88
2023/01/11 07:02:37;;;;;;;1.50;0.68;;;;;;;9.76;94.00;98019.88;5016496;23;20665;-91
2023/01/11 07:04:41;;;;;;;0.90;0.57;;;;;;;9.78;93.90;98018.84;4991593;23;20214;-89
2023/01/11 07:06:45;;;;;;;1.17;0.57;;;;;;;9.81;93.75;98020.44;5038760;23;20648;-90
2023/01/11 07:08:48;;;;;;;1.83;0.53;;;;;;;9.83;94.08;98021.97;5015762;23;20178;-89
2023/01/11 07:10:51;;;;;;;1.27;0.50;;;;;;;9.84;94.12;98024.47;5014701;23;20574;-89
2023/01/11 07:12:54;;;;;;;2.40;0.50;;;;;;;9.87;93.50;98034.69;5039321;23;20579;-89
2023/01/11 07:14:57;;;;;;;1.20;0.70;;;;;;;9.86;93.12;98027.84;5017649;23;20590;-88
2023/01/11 07:17:00;;;;;;;1.20;0.80;;;;;;;9.84;91.81;98021.06;5015594;23;21177;-90
2023/01/11 07:19:03;;;;;;;1.70;1.13;;;;;;;9.76;91.88;98022.47;5018798;23;20554;-90
2023/01/11 07:21:08;;;;;;;1.70;1.10;;;;;;;9.63;90.78;98009.44;5014584;23;21284;-92
2023/01/11 07:23:11;;;;;;;2.05;1.13;;;;;;;9.57;91.07;98016.84;5014687;23;20586;-88
2023/01/11 07:25:14;;;;;;;2.20;1.10;;;;;;;9.53;91.13;98012.75;5016344;23;20189;-89
2023/01/11 07:27:18;;;;;;;1.93;1.20;;;;;;;9.47;90.55;98007.94;5015033;23;21063;-88
2023/01/11 07:29:21;;;;;;;2.53;1.17;;;;;;;9.38;90.76;98008.53;5013510;23;20582;-88
2023/01/11 07:31:24;;;;;;;1.40;1.00;;;;;;;9.31;90.30;97994.28;5017908;23;20604;-89
2023/01/11 07:33:28;;;;;;;1.53;0.97;;;;;;;9.27;90.93;98000.59;5016804;23;20585;-89
2023/01/11 07:35:31;;;;;;;1.97;1.20;;;;;;;9.24;91.51;97998.19;4989109;23;21171;-90
2023/01/11 07:37:37;;;;;;;1.20;1.00;;;;;;;9.20;91.17;97994.16;5039054;23;20609;-88
2023/01/11 07:39:40;;;;;;;1.70;1.03;;;;;;;9.18;91.48;98000.38;5016302;23;20889;-88
2023/01/11 07:44:06;;;;;;;2.07;1.33;;;;;;;9.13;91.56;97994.63;5016927;23;20566;-88
2023/01/11 07:46:09;;;;;;;4.57;1.38;;;;;;;9.07;91.47;98001.06;5015451;23;20656;-87
2023/01/11 07:48:13;;;;;;;1.97;1.10;;;;;;;9.08;92.47;97994.94;4992406;23;20196;-89
2023/01/11 07:50:16;;;;;;;1.80;1.30;;;;;;;9.13;91.98;97992.03;5015937;23;21066;-88
2023/01/11 07:52:19;;;;;;;2.50;1.40;;;;;;;9.16;92.58;98000.47;5015695;23;20619;-89
2023/01/11 07:54:24;;;;;;;1.77;1.10;;;;;;;9.24;92.37;98011.22;5016381;23;20625;-88
2023/01/11 07:56:27;;;;;;;1.00;0.90;;;;;;;9.30;92.43;98005.59;5017451;23;20578;-88
2023/01/11 07:58:31;;;;;;;2.38;1.40;;;;;;;9.35;92.36;97998.38;5018093;23;20886;-88
2023/01/11 08:00:34;;;;;;;1.90;1.35;;;;;;;9.38;91.40;98004.19;4992480;23;20182;-88
2023/01/11 08:02:37;;;;;;;1.83;1.20;;;;;;;9.43;92.19;98009.09;5015125;23;20540;-88
2023/01/11 08:04:40;;;;;;;2.23;2.03;;;;;;;9.48;92.75;98005.25;4988663;23;20617;-88
2023/01/11 08:06:43;;;;;;;1.43;1.20;;;;;;;9.58;92.44;98005.50;5013356;23;20716;-89
2023/01/11 08:08:46;;;;;;;1.60;1.07;;;;;;;9.63;92.56;98006.84;5016291;23;20586;-88
2023/01/11 08:14:38;;;;;;;2.13;1.23;;;;;;;9.67;92.59;98005.72;5016374;23;20585;-88
2023/01/11 08:15:35;;;;;;;2.10;0.83;;;;;;;9.81;92.54;98002.19;5015261;23;20223;-86
2023/01/11 08:17:38;;;;;;;1.42;0.82;;;;;;;9.86;93.08;98006.16;5017094;23;20697;-87
2023/01/11 08:19:42;;;;;;;1.77;0.80;;;;;;;9.90;93.26;98008.44;5014220;23;20186;-88
2023/01/11 08:21:45;;;;;;;1.58;1.00;;;;;;;9.98;93.75;98010.56;4992398;23;20231;-88
2023/01/11 08:23:48;;;;;;;2.40;0.80;;;;;;;10.03;92.75;98011.94;5016628;23;20703;-89
2023/01/11 08:25:57;;;;;;;1.97;0.80;;;;;;;10.11;92.36;98021.84;5015406;23;20586;-90
2023/01/11 08:28:01;;;;;;;1.30;0.80;;;;;;;10.16;92.43;98024.97;5039768;23;20573;-90
2023/01/11 08:30:05;;;;;;;1.10;0.70;;;;;;;10.24;92.70;98025.28;5014834;23;20231;-89
2023/01/11 08:32:08;;;;;;;2.00;0.80;;;;;;;10.30;92.89;98023.09;5011622;23;20593;-89
2023/01/11 08:34:12;;;;;;;6.07;4.27;;;;;;;10.36;92.97;98028.72;5015519;23;20596;-88
2023/01/11 08:36:15;;;;;;;3.57;2.63;;;;;;;10.43;93.14;98029.13;5013684;23;20555;-88
2023/01/11 08:38:18;;;;;;;1.40;0.90;;;;;;;10.47;93.58;98028.00;5012345;23;20570;-89
2023/01/11 08:40:21;;;;;;;1.63;1.17;;;;;;;10.51;93.75;98024.25;5016812;23;20654;-88
2023/01/11 08:42:28;;;;;;;1.40;1.00;;;;;;;10.56;92.08;98035.19;5015192;23;21093;-89
2023/01/11 08:44:31;;;;;;;1.53;0.90;;;;;;;10.63;92.71;98031.19;5039683;23;20587;-88
2023/01/11 08:46:36;;;;;;;2.80;0.80;;;;;;;10.68;91.71;98031.72;5014419;23;20672;-88
2023/01/11 08:48:40;;;;;;;2.00;1.03;;;;;;;10.71;91.69;98023.69;5015613;23;20677;-88
2023/01/11 08:50:43;;;;;;;2.93;0.70;;;;;;;10.78;91.89;98020.53;5014361;23;21086;-89
2023/01/11 08:52:46;;;;;;;1.00;0.60;;;;;;;10.81;92.94;98021.16;5038907;23;20581;-88
2023/01/11 08:54:49;;;;;;;1.47;0.60;;;;;;;10.84;92.78;98022.72;5015110;23;21309;-88
2023/01/11 08:56:53;;;;;;;1.17;0.60;;;;;;;10.89;91.65;98015.41;5014537;23;20588;-88
2023/01/11 08:58:57;;;;;;;1.13;0.53;;;;;;;10.95;92.75;98028.00;5015003;23;20662;-87
2023/01/11 09:01:02;;;;;;;1.00;0.50;;;;;;;10.99;91.92;98026.81;5014774;23;21074;-88
2023/01/11 09:03:05;;;;;;;1.83;0.70;;;;;;;11.01;92.68;98030.19;4991535;23;20579;-88
2023/01/11 09:05:09;;;;;;;1.70;0.80;;;;;;;11.02;92.71;98030.06;5039735;23;20616;-88
2023/01/11 09:07:13;;;;;;;1.30;0.80;;;;;;;11.03;93.28;98029.13;5017109;23;20628;-88
2023/01/11 09:09:16;;;;;;;1.63;0.80;;;;;;;11.04;92.58;98032.56;5015546;23;20617;-88
2023/01/11 09:13:40;;;;;;;1.57;0.80;;;;;;;11.03;92.27;98030.91;5017748;23;20582;-88
2023/01/11 09:15:45;;;;;;;1.90;1.00;;;;;;;11.02;91.36;98024.84;5017453;23;20613;-89
2023/01/11 09:17:49;;;;;;;1.50;1.00;;;;;;;11.03;90.68;98023.06;5016758;23;20578;-89
2023/01/11 09:19:53;;;;;;;1.70;0.93;;;;;;;11.03;91.82;98026.50;5015520;23;20557;-89
2023/01/11 09:21:59;;;;;;;2.40;0.93;;;;;;;11.03;92.33;98023.91;5015169;23;21189;-89
2023/01/11 09:24:03;;;;;;;1.50;0.80;;;;;;;11.03;91.74;98026.50;5015784;23;20586;-89
2023/01/11 09:26:06;;;;;;;1.60;0.87;;;;;;;11.04;90.22;98035.19;5014514;23;20597;-89
2023/01/11 09:28:09;;;;;;;1.60;1.10;;;;;;;11.02;90.78;98030.06;5015116;23;20641;-89
2023/01/11 09:30:15;;;;;;;2.23;0.90;;;;;;;11.00;91.72;98020.69;4987888;23;20589;-88
2023/01/11 09:32:20;;;;;;;1.40;1.03;;;;;;;10.94;91.73;98014.09;5014704;23;20596;-88
2023/01/11 09:34:24;;;;;;;2.27;1.10;;;;;;;10.92;92.40;98021.22;4991094;23;20665;-88
2023/01/11 09:36:27;;;;;;;1.93;1.10;;;;;;;10.91;92.27;98029.16;5013606;23;20594;-88
2023/01/11 09:38:32;;;;;;;1.93;1.10;;;;;;;10.86;91.68;98026.88;5037772;23;20588;-88
2023/01/11 09:40:45;;;;;;;1.93;1.03;;;;;;;10.83;92.90;98027.09;5015173;23;20619;-88
2023/01/11 09:42:51;;;;;;;1.80;1.30;;;;;;;10.78;92.26;98023.16;5015335;23;20696;-88
2023/01/11 09:44:57;;;;;;;3.23;1.00;;;;;;;10.77;92.49;98020.66;5013616;23;20588;-88
2023/01/11 09:47:12;;;;;;;2.07;1.30;;;;;;;10.74;92.31;98015.66;5016375;23;21142;-88
2023/01/11 09:49:19;;;;;;;2.23;1.10;;;;;;;10.67;92.98;98023.03;5014903;23;20645;-89
2023/01/11 09:51:23;;;;;;;2.00;1.17;;;;;;;10.65;91.89;98019.72;5015359;23;20604;-88
2023/01/11 09:53:33;;;;;;;4.30;1.10;;;;;;;10.64;92.49;98023.25;5016559;23;20589;-89
2023/01/11 09:55:39;;;;;;;2.10;1.33;;;;;;;10.64;92.34;98012.81;5015299;23;20636;-88
2023/01/11 09:57:52;;;;;;;1.77;1.20;;;;;;;10.63;92.37;98013.78;5017059;23;21102;-89
2023/01/11 10:00:00;;;;;;;2.63;1.30;;;;;;;10.64;92.67;98012.00;5037874;23;20585;-88
2023/01/11 10:02:16;;;;;;;1.30;1.03;;;;;;;10.64;93.31;98014.63;5013835;23;20558;-88
2023/01/11 10:04:39;;;;;;;1.70;1.33;;;;;;;10.60;93.58;98006.19;5014108;23;20663;-89
2023/01/11 10:06:52;;;;;;;3.03;1.20;;;;;;;10.62;92.52;98009.50;5014645;23;20593;-90
2023/01/11 10:09:08;;;;;;;1.97;1.30;;;;;;;10.64;93.13;98009.41;5015534;23;21119;-93
2023/01/11 10:11:42;;;;;;;1.80;1.20;;;;;;;10.67;93.70;98017.00;4989600;23;20587;-95
2023/01/11 10:14:12;;;;;;;2.23;1.30;;;;;;;10.70;93.16;98012.41;5013455;23;20578;-94
2023/01/11 10:16:42;;;;;;;2.30;1.30;;;;;;;10.74;94.05;98002.59;5013251;23;20629;-89
2023/01/11 10:19:13;;;;;;;2.83;1.83;;;;;;;10.76;91.97;98001.53;5013191;23;20558;-88